Time;durP1;ratioP1;P1;durP2;ratioP2;P2;SDS_P1;SDS_P2;PMS_P1;PMS_P2;Temp;Humidity;BMP_temperature;BMP_pressure;BME280_temperature;BME280_humidity;BME280_pressure;Samples;Min_cycle;Max_cycle;Signal;HPM_P1;HPM_P2
2023/01/07 00:01:01;;;;;;;2.08;1.25;;;;;;;7.64;100.00;98871.69;4236689;27;20093;-73
2023/01/07 00:03:01;;;;;;;1.27;1.05;;;;;;;7.64;100.00;98863.41;4236280;27;20752;-73
2023/01/07 00:05:02;;;;;;;1.83;1.25;;;;;;;7.62;100.00;98872.03;4227487;27;20043;-73
2023/01/07 00:07:02;;;;;;;1.33;1.00;;;;;;;7.65;100.00;98863.06;4236445;27;20040;-73
2023/01/07 00:09:05;;;;;;;1.20;1.08;;;;;;;7.64;100.00;98869.72;4230964;27;20044;-73
2023/01/07 00:11:11;;;;;;;1.45;1.27;;;;;;;7.62;100.00;98871.25;4231621;27;20058;-73
2023/01/07 00:13:11;;;;;;;1.30;1.20;;;;;;;7.62;100.00;98874.00;4236688;27;20043;-73
2023/01/07 00:15:11;;;;;;;1.67;1.00;;;;;;;7.64;100.00;98872.47;4225224;27;20066;-73
2023/01/07 00:17:12;;;;;;;1.13;1.00;;;;;;;7.61;100.00;98867.66;4227547;27;20775;-73
2023/01/07 00:19:14;;;;;;;1.30;1.20;;;;;;;7.62;100.00;98877.53;4224230;27;20117;-73
2023/01/07 00:21:16;;;;;;;1.20;1.05;;;;;;;7.62;100.00;98871.25;4220970;27;20055;-73
2023/01/07 00:23:17;;;;;;;1.25;1.00;;;;;;;7.68;100.00;98873.38;4220298;27;20330;-73
2023/01/07 00:25:17;;;;;;;1.58;1.15;;;;;;;7.70;100.00;98884.06;4230512;27;20054;-73
2023/01/07 00:27:17;;;;;;;2.45;0.88;;;;;;;7.71;100.00;98871.91;4226217;27;20047;-73
2023/01/07 00:29:18;;;;;;;1.63;1.00;;;;;;;7.69;100.00;98863.97;4220961;27;20112;-73
2023/01/07 00:31:27;;;;;;;0.93;0.82;;;;;;;7.72;100.00;98865.22;4221151;27;20094;-73
2023/01/07 00:33:27;;;;;;;0.90;0.80;;;;;;;7.75;100.00;98859.00;4220370;27;20070;-73
2023/01/07 00:35:28;;;;;;;0.75;0.75;;;;;;;7.82;100.00;98868.28;4219100;27;20586;-73
2023/01/07 00:39:47;;;;;;;1.00;0.90;;;;;;;7.91;100.00;98865.38;4219448;27;20090;-73
2023/01/07 00:44:07;;;;;;;1.02;0.93;;;;;;;7.84;100.00;98865.97;4220647;27;20061;-73
2023/01/07 00:46:09;;;;;;;1.13;0.90;;;;;;;7.88;100.00;98863.34;4232381;27;20047;-73
2023/01/07 00:48:10;;;;;;;1.10;1.00;;;;;;;7.92;100.00;98869.72;4232488;27;20062;-73
2023/01/07 00:50:10;;;;;;;1.00;0.90;;;;;;;7.88;100.00;98866.88;4236647;27;20454;-73
2023/01/07 00:52:11;;;;;;;2.63;1.17;;;;;;;7.91;100.00;98872.84;4235909;27;20054;-73
2023/01/07 00:54:11;;;;;;;1.17;1.00;;;;;;;7.88;100.00;98871.59;4221624;27;20181;-73
2023/01/07 00:56:13;;;;;;;1.20;1.10;;;;;;;7.95;100.00;98876.50;4222280;27;20368;-73
2023/01/07 00:58:16;;;;;;;1.00;0.90;;;;;;;7.95;100.00;98871.81;4227891;27;20424;-73
2023/01/07 01:00:18;;;;;;;1.00;1.00;;;;;;;7.95;100.00;98869.06;4222130;27;20027;-73
2023/01/07 01:02:18;;;;;;;1.23;0.93;;;;;;;7.97;100.00;98860.44;4225872;27;20054;-73
2023/01/07 01:04:19;;;;;;;1.05;0.93;;;;;;;7.92;100.00;98866.97;4220348;27;20074;-73
2023/01/07 01:06:19;;;;;;;1.40;1.00;;;;;;;7.94;100.00;98861.91;4221099;27;20084;-73
2023/01/07 01:08:21;;;;;;;0.80;0.80;;;;;;;7.97;100.00;98865.94;4223462;27;20028;-73
2023/01/07 01:10:21;;;;;;;0.98;0.80;;;;;;;7.94;100.00;98859.16;4218438;27;20478;-73
2023/01/07 01:12:21;;;;;;;1.30;1.02;;;;;;;7.88;100.00;98847.59;4220153;27;20032;-73
2023/01/07 01:14:22;;;;;;;0.95;0.90;;;;;;;7.84;100.00;98835.66;4224213;27;20050;-73
2023/01/07 01:16:22;;;;;;;1.00;0.90;;;;;;;7.81;100.00;98847.41;4222486;27;20051;-73
2023/01/07 01:18:23;;;;;;;0.80;0.80;;;;;;;7.75;100.00;98843.28;4223959;27;20182;-73
2023/01/07 01:20:23;;;;;;;0.95;0.85;;;;;;;7.78;100.00;98839.84;4222863;27;20039;-73
2023/01/07 01:22:23;;;;;;;1.00;0.90;;;;;;;7.75;100.00;98837.78;4223995;27;20088;-73
2023/01/07 01:24:25;;;;;;;0.90;0.77;;;;;;;7.74;100.00;98851.91;4223026;27;20047;-73
2023/01/07 01:26:25;;;;;;;0.88;0.80;;;;;;;7.71;100.00;98838.84;4224715;27;20449;-73
2023/01/07 01:28:25;;;;;;;1.00;0.90;;;;;;;7.66;100.00;98834.38;4222241;27;20151;-73
2023/01/07 01:30:26;;;;;;;2.20;0.90;;;;;;;7.65;100.00;98832.78;4225016;27;20035;-73
2023/01/07 01:32:27;;;;;;;1.23;0.90;;;;;;;7.68;100.00;98828.50;4226031;27;20065;-73
2023/01/07 01:34:28;;;;;;;1.63;1.02;;;;;;;7.64;100.00;98836.69;4222627;27;20048;-73
2023/01/07 01:36:28;;;;;;;0.82;0.80;;;;;;;7.59;100.00;98831.41;4225482;27;20052;-73
2023/01/07 01:38:29;;;;;;;0.95;0.80;;;;;;;7.57;100.00;98825.47;4223506;27;20043;-73
2023/01/07 01:40:29;;;;;;;1.10;1.00;;;;;;;7.57;100.00;98811.69;4223736;27;20126;-73
2023/01/07 01:42:30;;;;;;;1.38;0.70;;;;;;;7.54;100.00;98818.72;4225841;27;20032;-73
2023/01/07 01:44:41;;;;;;;1.13;0.90;;;;;;;7.50;100.00;98817.00;4224255;27;20070;-73
2023/01/07 01:46:44;;;;;;;0.80;0.80;;;;;;;7.49;100.00;98816.19;4221256;27;20052;-73
2023/01/07 01:48:59;;;;;;;1.10;0.88;;;;;;;7.44;100.00;98799.91;4225009;27;20031;-73
2023/01/07 01:51:01;;;;;;;1.50;0.90;;;;;;;7.43;100.00;98794.75;4224472;27;20039;-73
2023/01/07 01:53:27;;;;;;;1.38;0.75;;;;;;;7.46;100.00;98803.13;4222519;27;20112;-73
2023/01/07 01:55:35;;;;;;;1.00;0.70;;;;;;;7.44;100.00;98802.66;4219310;27;20053;-73
2023/01/07 01:57:37;;;;;;;0.77;0.70;;;;;;;7.50;100.00;98809.53;4223462;27;20075;-73
2023/01/07 01:59:40;;;;;;;0.77;0.77;;;;;;;7.47;100.00;98799.22;4223683;27;20433;-73
2023/01/07 02:01:41;;;;;;;0.80;0.80;;;;;;;7.42;100.00;98804.16;4224673;27;20031;-73
2023/01/07 02:03:42;;;;;;;0.70;0.70;;;;;;;7.40;100.00;98809.22;4224542;27;20110;-73
2023/01/07 02:05:44;;;;;;;0.60;0.60;;;;;;;7.35;100.00;98806.72;4223085;27;20042;-73
2023/01/07 02:07:44;;;;;;;1.00;0.90;;;;;;;7.32;100.00;98813.72;4222160;27;20119;-73
2023/01/07 02:09:49;;;;;;;1.75;0.73;;;;;;;7.31;100.00;98810.16;4225755;27;20433;-73
2023/01/07 02:12:08;;;;;;;0.95;0.80;;;;;;;7.27;100.00;98813.94;4225188;27;20375;-73
2023/01/07 02:14:32;;;;;;;0.63;0.63;;;;;;;7.22;100.00;98811.47;4222698;28;20042;-73
2023/01/07 02:17:02;;;;;;;0.77;0.70;;;;;;;7.14;100.00;98809.63;4225524;27;20109;-73
2023/01/07 02:19:17;;;;;;;0.60;0.60;;;;;;;7.14;100.00;98815.94;4222615;27;20525;-73
2023/01/07 02:21:59;;;;;;;0.70;0.70;;;;;;;7.12;100.00;98810.00;4224624;27;20044;-73
2023/01/07 02:24:34;;;;;;;0.60;0.60;;;;;;;7.08;100.00;98811.81;4214827;28;20519;-73
2023/01/07 02:27:22;;;;;;;0.60;0.60;;;;;;;7.02;100.00;98807.69;4186875;28;20044;-73
2023/01/07 02:29:40;;;;;;;1.20;0.75;;;;;;;6.99;100.00;98825.72;4184725;28;20124;-73
2023/01/07 02:32:09;;;;;;;0.50;0.50;;;;;;;6.96;100.00;98818.16;4212958;28;20043;-73
2023/01/07 02:34:17;;;;;;;0.95;0.85;;;;;;;6.88;100.00;98808.06;4219941;27;20158;-73
2023/01/07 02:36:28;;;;;;;0.80;0.70;;;;;;;6.83;100.00;98810.25;4222966;28;20347;-73
2023/01/07 02:38:39;;;;;;;0.77;0.70;;;;;;;6.68;100.00;98812.53;4221704;27;20135;-73
2023/01/07 02:40:48;;;;;;;0.80;0.73;;;;;;;6.63;100.00;98818.28;4224403;27;20360;-73
2023/01/07 02:43:14;;;;;;;0.90;0.73;;;;;;;6.69;100.00;98805.88;4223249;27;20035;-73
2023/01/07 02:45:31;;;;;;;0.70;0.70;;;;;;;6.58;100.00;98807.50;4222010;27;20050;-73
2023/01/07 02:47:43;;;;;;;0.85;0.80;;;;;;;6.54;100.00;98809.34;4222180;27;20460;-73
2023/01/07 02:49:46;;;;;;;0.60;0.60;;;;;;;6.51;100.00;98810.03;4225592;28;20118;-73
2023/01/07 02:51:47;;;;;;;1.33;1.05;;;;;;;6.53;100.00;98809.66;4223846;27;20031;-73
2023/01/07 02:53:48;;;;;;;1.05;1.05;;;;;;;6.53;100.00;98813.22;4224446;27;20148;-73
2023/01/07 02:56:02;;;;;;;0.80;0.77;;;;;;;6.53;100.00;98806.91;4223234;28;20044;-73
2023/01/07 02:58:09;;;;;;;1.00;0.70;;;;;;;6.59;100.00;98811.06;4221128;27;20039;-73
2023/01/07 03:00:26;;;;;;;0.93;0.82;;;;;;;6.59;100.00;98817.34;4226024;28;20466;-73
2023/01/07 03:02:32;;;;;;;1.00;0.77;;;;;;;6.57;100.00;98814.16;4223383;27;20048;-73
2023/01/07 03:04:57;;;;;;;1.00;0.77;;;;;;;6.52;100.00;98805.31;4226791;27;20375;-73
2023/01/07 03:07:07;;;;;;;1.20;1.10;;;;;;;6.50;100.00;98800.16;4227778;27;20063;-73
2023/01/07 03:09:18;;;;;;;0.88;0.82;;;;;;;6.49;100.00;98809.56;4224989;27;20044;-73
2023/01/07 03:11:22;;;;;;;1.10;1.00;;;;;;;6.48;100.00;98811.50;4227642;27;20046;-73
2023/01/07 03:13:28;;;;;;;1.00;0.90;;;;;;;6.50;100.00;98802.91;4225758;27;20430;-73
2023/01/07 03:15:37;;;;;;;1.00;0.90;;;;;;;6.52;100.00;98795.13;4224074;27;20074;-73
2023/01/07 03:17:43;;;;;;;1.02;0.90;;;;;;;6.52;100.00;98795.13;4226761;27;20070;-73
2023/01/07 03:19:49;;;;;;;0.90;0.80;;;;;;;6.57;100.00;98794.09;4225882;27;20476;-73
2023/01/07 03:21:51;;;;;;;1.48;1.10;;;;;;;6.62;100.00;98794.69;4226612;27;20036;-73
2023/01/07 03:23:55;;;;;;;1.67;1.13;;;;;;;6.68;100.00;98792.50;4227922;27;20459;-73
2023/01/07 03:26:02;;;;;;;1.15;1.02;;;;;;;6.75;100.00;98796.28;4225644;27;20129;-73
2023/01/07 03:28:04;;;;;;;1.50;1.10;;;;;;;6.80;100.00;98784.25;4226726;27;20052;-73
2023/01/07 03:30:09;;;;;;;2.30;1.13;;;;;;;6.89;100.00;98792.38;4227648;27;20031;-73
2023/01/07 03:32:17;;;;;;;3.70;1.20;;;;;;;6.93;100.00;98787.78;4223210;27;20227;-73
2023/01/07 03:34:21;;;;;;;2.50;1.50;;;;;;;6.97;100.00;98785.94;4224177;27;20032;-73
2023/01/07 03:36:26;;;;;;;4.07;2.47;;;;;;;7.03;100.00;98790.03;4222904;27;20337;-73
2023/01/07 03:38:27;;;;;;;3.00;1.95;;;;;;;7.09;100.00;98780.41;4226495;27;20043;-73
2023/01/07 03:40:28;;;;;;;2.00;1.25;;;;;;;7.16;100.00;98777.88;4223232;27;20046;-73
2023/01/07 03:42:39;;;;;;;2.40;1.58;;;;;;;7.19;100.00;98774.41;4224246;27;20047;-73
2023/01/07 03:44:39;;;;;;;1.98;1.42;;;;;;;7.25;100.00;98770.28;4225596;27;20358;-73
2023/01/07 03:46:40;;;;;;;2.58;1.25;;;;;;;7.29;100.00;98773.94;4228169;27;20120;-73
2023/01/07 03:48:40;;;;;;;1.58;1.10;;;;;;;7.26;100.00;98771.88;4225545;27;20194;-73
2023/01/07 03:50:40;;;;;;;2.03;1.52;;;;;;;7.28;100.00;98769.59;4224133;27;20044;-73
2023/01/07 03:52:41;;;;;;;2.03;1.20;;;;;;;7.27;100.00;98761.66;4226788;27;20505;-73
2023/01/07 03:54:41;;;;;;;2.95;1.30;;;;;;;7.31;100.00;98768.09;4226886;27;20043;-73
2023/01/07 03:56:42;;;;;;;1.63;1.25;;;;;;;7.31;100.00;98771.63;4224257;27;20134;-73
2023/01/07 03:58:42;;;;;;;1.33;1.15;;;;;;;7.30;100.00;98769.25;4221161;27;20036;-73
2023/01/07 04:00:42;;;;;;;0.88;0.70;;;;;;;7.31;100.00;98768.88;4225567;27;20360;-73
2023/01/07 04:02:43;;;;;;;1.08;0.95;;;;;;;7.33;100.00;98761.06;4232841;27;20047;-73
2023/01/07 04:04:44;;;;;;;1.40;1.10;;;;;;;7.32;100.00;98761.41;4226088;27;20138;-73
2023/01/07 04:06:44;;;;;;;1.10;0.90;;;;;;;7.32;100.00;98751.22;4222354;27;20051;-73
2023/01/07 04:08:44;;;;;;;0.95;0.80;;;;;;;7.33;100.00;98757.50;4221313;27;20610;-73
2023/01/07 04:10:45;;;;;;;0.88;0.77;;;;;;;7.32;100.00;98742.94;4220781;27;20460;-73
2023/01/07 04:12:45;;;;;;;1.08;0.90;;;;;;;7.31;100.00;98743.31;4220236;27;20282;-73
2023/01/07 04:14:45;;;;;;;0.73;0.73;;;;;;;7.34;100.00;98748.09;4221513;27;20047;-73
2023/01/07 04:16:46;;;;;;;1.33;1.00;;;;;;;7.33;100.00;98741.81;4224917;27;20122;-73
2023/01/07 04:18:46;;;;;;;0.90;0.80;;;;;;;7.41;100.00;98734.53;4226515;27;20291;-73
2023/01/07 04:20:47;;;;;;;0.95;0.80;;;;;;;7.42;100.00;98729.84;4220517;27;20442;-73
2023/01/07 04:22:48;;;;;;;1.33;1.13;;;;;;;7.40;100.00;98730.19;4220142;27;20047;-73
2023/01/07 04:24:48;;;;;;;0.80;0.80;;;;;;;7.46;100.00;98730.75;4226020;27;20472;-73
2023/01/07 04:26:48;;;;;;;1.30;0.90;;;;;;;7.44;100.00;98724.78;4221822;27;20056;-73
2023/01/07 04:28:49;;;;;;;0.80;0.73;;;;;;;7.46;100.00;98717.00;4220143;27;20069;-73
2023/01/07 04:30:49;;;;;;;0.80;0.80;;;;;;;7.46;100.00;98722.50;4224332;27;20122;-73
2023/01/07 04:32:50;;;;;;;1.02;0.82;;;;;;;7.47;100.00;98721.34;4235103;27;20127;-73
2023/01/07 04:34:51;;;;;;;0.70;0.70;;;;;;;7.46;100.00;98717.78;4232125;27;20040;-73
2023/01/07 04:36:51;;;;;;;0.80;0.80;;;;;;;7.47;100.00;98719.38;4220460;27;20058;-73
2023/01/07 04:38:51;;;;;;;1.15;0.80;;;;;;;7.45;100.00;98724.44;4220718;27;20043;-73
2023/01/07 04:40:52;;;;;;;0.90;0.90;;;;;;;7.41;100.00;98714.47;4219961;27;20119;-73
2023/01/07 04:42:52;;;;;;;1.27;0.80;;;;;;;7.42;100.00;98716.06;4219661;27;20526;-73
2023/01/07 04:44:53;;;;;;;3.72;0.80;;;;;;;7.45;100.00;98718.16;4223016;27;20198;-73
2023/01/07 04:46:53;;;;;;;0.95;0.90;;;;;;;7.45;100.00;98709.88;4221817;27;20381;-73
2023/01/07 04:48:53;;;;;;;1.05;0.80;;;;;;;7.45;100.00;98716.19;4224366;27;20047;-73
2023/01/07 04:50:54;;;;;;;0.80;0.80;;;;;;;7.48;100.00;98717.44;4222129;27;20050;-73
2023/01/07 04:52:54;;;;;;;1.02;0.80;;;;;;;7.48;100.00;98711.94;4234715;27;20039;-73
2023/01/07 04:54:54;;;;;;;0.77;0.77;;;;;;;7.46;100.00;98715.03;4225424;27;20071;-73
2023/01/07 04:56:55;;;;;;;1.80;0.80;;;;;;;7.42;100.00;98711.38;4229147;27;20506;-73
2023/01/07 04:58:55;;;;;;;0.98;0.80;;;;;;;7.40;100.00;98721.13;4220315;27;20051;-73
2023/01/07 05:00:57;;;;;;;0.90;0.80;;;;;;;7.41;100.00;98719.97;4220069;27;20042;-73
2023/01/07 05:02:58;;;;;;;3.72;0.82;;;;;;;7.39;100.00;98712.09;4220071;27;20039;-73
2023/01/07 05:04:58;;;;;;;1.10;0.85;;;;;;;7.40;100.00;98708.19;4222880;27;20048;-73
2023/01/07 05:06:58;;;;;;;0.88;0.80;;;;;;;7.39;100.00;98722.28;4223661;27;20056;-73
2023/01/07 05:08:59;;;;;;;0.98;0.90;;;;;;;7.37;100.00;98713.59;4220239;27;20329;-73
2023/01/07 05:11:00;;;;;;;0.80;0.65;;;;;;;7.35;100.00;98710.38;4220182;27;20059;-73
2023/01/07 05:13:04;;;;;;;0.80;0.80;;;;;;;7.36;100.00;98703.72;4219215;27;20055;-73
2023/01/07 05:15:06;;;;;;;1.35;0.70;;;;;;;7.36;100.00;98704.50;4228084;27;20046;-73
2023/01/07 05:17:06;;;;;;;1.25;0.90;;;;;;;7.39;100.00;98703.81;4227757;27;20047;-73
2023/01/07 05:19:08;;;;;;;0.60;0.60;;;;;;;7.39;100.00;98703.03;4219733;27;20657;-73
2023/01/07 05:21:09;;;;;;;0.82;0.75;;;;;;;7.44;100.00;98700.81;4219733;27;20598;-73
2023/01/07 05:23:10;;;;;;;1.10;1.00;;;;;;;7.47;100.00;98708.38;4219423;27;20084;-73
2023/01/07 05:25:10;;;;;;;0.88;0.70;;;;;;;7.45;100.00;98702.44;4222850;27;20058;-73
2023/01/07 05:27:10;;;;;;;1.10;0.80;;;;;;;7.48;100.00;98706.41;4231093;27;20035;-73
2023/01/07 05:29:11;;;;;;;2.30;0.80;;;;;;;7.46;100.00;98693.00;4221924;27;20046;-73
2023/01/07 05:31:11;;;;;;;1.15;0.90;;;;;;;7.44;100.00;98697.25;4223818;27;20514;-73
2023/01/07 05:33:12;;;;;;;1.60;0.90;;;;;;;7.44;100.00;98689.00;4227142;27;20047;-73
2023/01/07 05:35:12;;;;;;;0.75;0.70;;;;;;;7.40;100.00;98693.63;4224710;27;20089;-73
2023/01/07 05:37:12;;;;;;;3.38;0.93;;;;;;;7.36;100.00;98681.69;4219230;27;20040;-73
2023/01/07 05:39:13;;;;;;;1.00;0.80;;;;;;;7.38;100.00;98693.16;4219641;27;20035;-73
2023/01/07 05:41:13;;;;;;;1.55;0.70;;;;;;;7.36;100.00;98678.94;4219924;27;20533;-73
2023/01/07 05:43:14;;;;;;;1.25;0.80;;;;;;;7.36;100.00;98676.97;4218208;27;20075;-73
2023/01/07 05:45:15;;;;;;;0.90;0.80;;;;;;;7.38;100.00;98684.91;4220443;27;20044;-73
2023/01/07 05:47:15;;;;;;;0.80;0.80;;;;;;;7.38;100.00;98693.16;4232486;27;20122;-73
2023/01/07 05:49:15;;;;;;;1.33;0.90;;;;;;;7.33;100.00;98678.50;4219421;27;20051;-73
2023/01/07 05:51:16;;;;;;;0.93;0.82;;;;;;;7.32;100.00;98676.09;4219238;27;20484;-73
2023/01/07 05:53:16;;;;;;;1.48;0.85;;;;;;;7.30;100.00;98672.91;4224018;27;20043;-73
2023/01/07 05:55:16;;;;;;;1.25;1.00;;;;;;;7.29;100.00;98671.31;4231737;27;20243;-73
2023/01/07 05:57:17;;;;;;;1.27;0.88;;;;;;;7.32;100.00;98667.84;4228409;27;20051;-73
2023/01/07 05:59:17;;;;;;;1.05;0.90;;;;;;;7.31;100.00;98660.75;4229049;27;20031;-73
2023/01/07 06:01:17;;;;;;;0.88;0.85;;;;;;;7.33;100.00;98661.19;4223852;27;20058;-73
2023/01/07 06:03:20;;;;;;;1.00;0.82;;;;;;;7.27;100.00;98660.63;4223222;27;20044;-73
2023/01/07 06:05:21;;;;;;;2.22;1.55;;;;;;;7.29;100.00;98672.09;4224645;27;20058;-73
2023/01/07 06:07:21;;;;;;;1.65;1.20;;;;;;;7.32;100.00;98665.88;4219203;27;20047;-73
2023/01/07 06:09:21;;;;;;;1.13;0.90;;;;;;;7.30;100.00;98672.91;4219138;27;21102;-73
2023/01/07 06:11:22;;;;;;;1.75;1.20;;;;;;;7.27;100.00;98679.91;4220363;27;20463;-73
2023/01/07 06:13:22;;;;;;;1.38;1.10;;;;;;;7.29;100.00;98680.38;4219193;27;20093;-73
2023/01/07 06:15:23;;;;;;;1.67;1.10;;;;;;;7.27;100.00;98679.91;4214975;27;20671;-73
2023/01/07 06:17:23;;;;;;;1.02;0.93;;;;;;;7.23;100.00;98673.50;4215435;27;20047;-73
2023/01/07 06:19:25;;;;;;;1.67;1.25;;;;;;;7.18;100.00;98678.44;4217262;27;20443;-73
2023/01/07 06:21:25;;;;;;;1.67;1.15;;;;;;;7.18;100.00;98671.00;4218491;27;20245;-73
2023/01/07 06:23:26;;;;;;;1.15;1.00;;;;;;;7.12;100.00;98675.16;4221121;27;20189;-73
2023/01/07 06:25:26;;;;;;;1.40;1.00;;;;;;;7.10;100.00;98682.16;4197858;27;20336;-73
2023/01/07 06:27:26;;;;;;;1.42;1.25;;;;;;;7.04;100.00;98685.16;4220288;27;20043;-73
2023/01/07 06:29:27;;;;;;;1.30;1.20;;;;;;;6.99;100.00;98685.41;4219128;27;20047;-73
2023/01/07 06:31:27;;;;;;;1.27;1.10;;;;;;;6.99;100.00;98687.34;4225408;27;20367;-73
2023/01/07 06:33:28;;;;;;;1.95;1.13;;;;;;;7.08;100.00;98687.22;4223589;27;20036;-73
2023/01/07 06:35:28;;;;;;;1.35;1.25;;;;;;;7.11;100.00;98690.03;4222949;27;20369;-73
2023/01/07 06:37:28;;;;;;;1.38;1.08;;;;;;;7.11;100.00;98684.53;4222494;27;20036;-73
2023/01/07 06:39:29;;;;;;;1.50;1.15;;;;;;;7.09;100.00;98691.56;4234605;27;20407;-73
2023/01/07 06:41:29;;;;;;;2.97;1.23;;;;;;;7.04;100.00;98679.66;4228854;27;20036;-73
2023/01/07 06:43:29;;;;;;;0.98;0.80;;;;;;;7.03;100.00;98680.00;4222031;27;20371;-73
2023/01/07 06:45:30;;;;;;;1.15;0.98;;;;;;;7.06;100.00;98684.81;4222024;27;20051;-73
2023/01/07 06:47:30;;;;;;;1.10;1.00;;;;;;;7.02;100.00;98676.44;4229707;27;20145;-73
2023/01/07 06:49:30;;;;;;;1.67;1.33;;;;;;;7.01;100.00;98671.28;4222521;27;20384;-73
2023/01/07 06:51:31;;;;;;;1.23;1.05;;;;;;;6.96;100.00;98677.06;4222559;27;20097;-73
2023/01/07 06:53:31;;;;;;;2.65;1.42;;;;;;;6.92;100.00;98665.13;4224261;27;20092;-73
2023/01/07 06:55:32;;;;;;;1.20;1.00;;;;;;;6.96;100.00;98672.34;4223657;27;20069;-73
2023/01/07 06:57:32;;;;;;;1.10;1.00;;;;;;;6.99;100.00;98679.91;4226615;27;20463;-73
2023/01/07 06:59:32;;;;;;;1.38;1.00;;;;;;;7.00;100.00;98676.00;4222693;27;20076;-73
2023/01/07 07:01:33;;;;;;;1.30;1.20;;;;;;;7.04;100.00;98676.91;4225191;27;20068;-73
2023/01/07 07:03:33;;;;;;;1.67;1.10;;;;;;;7.01;100.00;98674.03;4226039;27;20040;-73
2023/01/07 07:05:35;;;;;;;1.10;1.00;;;;;;;7.00;100.00;98676.00;4227364;27;20039;-73
2023/01/07 07:07:35;;;;;;;1.42;1.10;;;;;;;7.01;100.00;98677.59;4227478;27;20484;-73
2023/01/07 07:09:36;;;;;;;1.65;1.10;;;;;;;6.96;100.00;98671.56;4224690;27;20371;-73
2023/01/07 07:11:36;;;;;;;1.67;1.20;;;;;;;6.92;100.00;98667.88;4225402;27;20065;-73
2023/01/07 07:13:36;;;;;;;1.40;1.20;;;;;;;6.92;100.00;98673.41;4223466;27;20032;-73
2023/01/07 07:15:37;;;;;;;1.40;1.30;;;;;;;6.89;100.00;98672.16;4225140;27;20377;-73
2023/01/07 07:17:37;;;;;;;1.08;0.98;;;;;;;6.88;100.00;98678.81;4229954;27;20054;-73
2023/01/07 07:19:37;;;;;;;1.25;1.10;;;;;;;6.86;100.00;98677.53;4226711;27;20043;-73
2023/01/07 07:21:38;;;;;;;1.50;1.10;;;;;;;6.85;100.00;98673.97;4225650;27;20047;-73
2023/01/07 07:23:38;;;;;;;1.67;1.30;;;;;;;6.86;100.00;98685.78;4224398;27;20050;-73
2023/01/07 07:25:38;;;;;;;5.88;1.50;;;;;;;6.81;100.00;98681.34;4226095;27;20038;-73
2023/01/07 07:27:39;;;;;;;4.15;1.20;;;;;;;6.80;100.00;98678.94;4228765;27;20039;-73
2023/01/07 07:29:39;;;;;;;3.42;1.40;;;;;;;6.79;100.00;98688.34;4227628;27;20039;-73
2023/01/07 07:31:40;;;;;;;1.42;1.25;;;;;;;6.78;100.00;98673.78;4223526;27;20039;-73
2023/01/07 07:33:40;;;;;;;3.05;1.60;;;;;;;6.75;100.00;98672.53;4223222;27;20093;-73
2023/01/07 07:35:41;;;;;;;1.27;1.17;;;;;;;6.74;100.00;98670.13;4222139;27;20331;-73
2023/01/07 07:37:41;;;;;;;1.67;1.17;;;;;;;6.79;100.00;98680.09;4229481;27;20348;-73
2023/01/07 07:39:41;;;;;;;1.48;1.20;;;;;;;6.80;100.00;98671.50;4220841;27;20481;-73
2023/01/07 07:41:42;;;;;;;3.20;2.15;;;;;;;6.83;100.00;98679.03;4226370;27;20286;-73
2023/01/07 07:43:42;;;;;;;2.28;1.67;;;;;;;6.83;100.00;98667.25;4230530;27;20482;-73
2023/01/07 07:45:43;;;;;;;1.92;1.30;;;;;;;6.84;100.00;98668.84;4222809;27;20047;-73
2023/01/07 07:47:43;;;;;;;1.60;1.20;;;;;;;6.80;100.00;98662.44;4221225;27;20071;-73
2023/01/07 07:49:44;;;;;;;2.72;1.30;;;;;;;6.78;100.00;98672.97;4221517;27;20047;-73
2023/01/07 07:51:44;;;;;;;2.25;1.50;;;;;;;6.72;100.00;98667.72;4221356;27;20052;-73
2023/01/07 07:53:44;;;;;;;3.47;1.65;;;;;;;6.74;100.00;98675.63;4222836;27;20468;-73
2023/01/07 07:55:45;;;;;;;6.32;1.73;;;;;;;6.72;100.00;98667.72;4222866;27;20047;-73
2023/01/07 07:57:45;;;;;;;3.92;1.60;;;;;;;6.74;100.00;98673.69;4221063;27;20047;-73
2023/01/07 07:59:46;;;;;;;2.22;1.50;;;;;;;6.76;100.00;98665.06;4220608;27;20035;-73
2023/01/07 08:01:46;;;;;;;3.30;2.30;;;;;;;6.75;100.00;98671.72;4222165;27;20383;-73
2023/01/07 08:03:46;;;;;;;3.40;2.97;;;;;;;6.79;100.00;98660.84;4220161;28;20051;-73
2023/01/07 08:05:47;;;;;;;5.60;2.78;;;;;;;6.78;100.00;98654.53;4227699;27;20108;-73
2023/01/07 08:07:47;;;;;;;3.08;2.40;;;;;;;6.78;100.00;98651.78;4233738;27;21210;-73
2023/01/07 08:09:47;;;;;;;3.05;2.72;;;;;;;6.81;100.00;98653.03;4220692;27;20042;-73
2023/01/07 08:11:48;;;;;;;3.00;2.70;;;;;;;6.82;100.00;98654.63;4222953;27;20039;-73
2023/01/07 08:13:48;;;;;;;3.83;2.65;;;;;;;6.81;100.00;98656.59;4225046;27;20039;-73
2023/01/07 08:15:49;;;;;;;3.70;3.00;;;;;;;6.82;100.00;98649.94;4222927;27;20035;-73
2023/01/07 08:17:56;;;;;;;3.03;2.45;;;;;;;6.83;100.00;98648.00;4236622;27;20494;-73
2023/01/07 08:19:57;;;;;;;4.75;2.95;;;;;;;6.85;100.00;98654.72;4233227;27;20082;-73
2023/01/07 08:21:57;;;;;;;3.63;2.50;;;;;;;6.87;100.00;98657.13;4220981;27;20055;-73
2023/01/07 08:23:57;;;;;;;4.60;2.38;;;;;;;6.87;100.00;98657.13;4220189;27;20043;-73
2023/01/07 08:26:00;;;;;;;2.83;2.50;;;;;;;6.89;100.00;98649.34;4222327;27;20035;-73
2023/01/07 08:28:01;;;;;;;4.13;2.42;;;;;;;6.96;100.00;98647.59;4227128;27;20082;-73
2023/01/07 08:30:01;;;;;;;3.58;2.28;;;;;;;7.01;100.00;98654.78;4225092;27;20047;-73
2023/01/07 08:32:02;;;;;;;3.42;2.30;;;;;;;7.05;100.00;98641.94;4223816;27;20096;-73
2023/01/07 08:34:02;;;;;;;7.28;2.80;;;;;;;7.07;100.00;98647.09;4221087;27;20092;-73
2023/01/07 08:36:07;;;;;;;5.32;2.15;;;;;;;7.09;100.00;98639.28;4220359;27;20772;-73
2023/01/07 08:38:08;;;;;;;4.30;2.33;;;;;;;7.06;100.00;98642.75;4225844;27;20154;-73
2023/01/07 08:40:10;;;;;;;3.13;2.00;;;;;;;7.08;100.00;98646.75;4233829;27;20043;-73
2023/01/07 08:42:10;;;;;;;5.72;2.40;;;;;;;7.03;100.00;98645.06;4233883;27;20545;-73
2023/01/07 08:44:10;;;;;;;3.45;2.53;;;;;;;7.11;100.00;98639.72;4222817;27;20031;-73
2023/01/07 08:46:11;;;;;;;5.78;3.30;;;;;;;7.15;100.00;98643.38;4222994;27;20027;-72
2023/01/07 08:48:11;;;;;;;5.45;3.22;;;;;;;7.17;100.00;98641.88;4221564;27;20028;-73
2023/01/07 08:50:11;;;;;;;7.70;5.00;;;;;;;7.19;100.00;98647.81;4220847;27;20023;-73
2023/01/07 08:52:12;;;;;;;5.88;4.05;;;;;;;7.21;100.00;98633.75;4226475;27;20085;-73
2023/01/07 08:54:12;;;;;;;9.00;4.68;;;;;;;7.24;100.00;98631.06;4224422;27;20345;-72
2023/01/07 08:56:13;;;;;;;10.02;4.70;;;;;;;7.22;100.00;98630.63;4232860;27;20181;-73
2023/01/07 08:58:13;;;;;;;7.72;4.07;;;;;;;7.27;100.00;98629.56;4225245;27;20027;-73
2023/01/07 09:00:15;;;;;;;11.02;5.15;;;;;;;7.28;100.00;98629.22;4235787;27;20046;-73
2023/01/07 09:02:17;;;;;;;9.40;4.30;;;;;;;7.24;100.00;98622.81;4228013;27;20031;-73
2023/01/07 09:04:18;;;;;;;13.63;5.38;;;;;;;7.25;100.00;98618.09;4232173;27;20031;-73
2023/01/07 09:06:18;;;;;;;8.60;4.28;;;;;;;7.22;100.00;98622.38;4220796;27;20305;-73
2023/01/07 09:08:19;;;;;;;11.23;5.45;;;;;;;7.25;100.00;98624.41;4219832;27;20118;-73
2023/01/07 09:10:20;;;;;;;13.98;5.75;;;;;;;7.27;100.00;98624.06;4223020;27;20020;-73
2023/01/07 09:12:20;;;;;;;19.65;8.73;;;;;;;7.28;100.00;98623.72;4222134;27;20072;-73
2023/01/07 09:14:20;;;;;;;23.20;9.27;;;;;;;7.28;100.00;98626.47;4219286;27;20052;-73
2023/01/07 09:16:21;;;;;;;25.50;9.65;;;;;;;7.23;100.00;98623.16;4226068;27;20054;-73
2023/01/07 09:18:21;;;;;;;37.03;14.68;;;;;;;7.24;100.00;98625.56;4232839;27;20036;-73
2023/01/07 09:20:22;;;;;;;29.80;11.65;;;;;;;7.22;100.00;98625.13;4225889;27;20456;-73
2023/01/07 09:22:22;;;;;;;15.73;7.05;;;;;;;7.22;100.00;98627.06;4222649;27;20048;-73
2023/01/07 09:24:22;;;;;;;18.83;8.05;;;;;;;7.21;100.00;98630.97;4224840;27;20047;-73
2023/01/07 09:26:23;;;;;;;20.85;7.70;;;;;;;7.18;100.00;98624.22;4234226;27;20084;-73
2023/01/07 09:28:23;;;;;;;21.15;9.80;;;;;;;7.18;100.00;98624.22;4225588;27;20331;-73
2023/01/07 09:30:23;;;;;;;16.70;8.45;;;;;;;7.22;100.00;98619.63;4219319;27;20118;-73
2023/01/07 09:32:24;;;;;;;22.23;9.38;;;;;;;7.26;100.00;98623.25;4221932;27;20081;-73
2023/01/07 09:34:25;;;;;;;13.18;5.60;;;;;;;7.23;100.00;98614.91;4219269;27;20054;-73
2023/01/07 09:36:26;;;;;;;9.50;4.70;;;;;;;7.23;100.00;98629.47;4227769;27;20491;-73
2023/01/07 09:38:26;;;;;;;10.93;4.07;;;;;;;7.23;100.00;98637.72;4219318;27;20031;-73
2023/01/07 09:40:34;;;;;;;13.70;4.72;;;;;;;7.21;100.00;98629.03;4219349;27;20046;-73